Time;durP1;ratioP1;P1;durP2;ratioP2;P2;SDS_P1;SDS_P2;PMS_P1;PMS_P2;Temp;Humidity;BMP_temperature;BMP_pressure;BME280_temperature;BME280_humidity;BME280_pressure;Samples;Min_cycle;Max_cycle;Signal;HPM_P1;HPM_P2
2022/10/04 00:02:23;;;;;;;20.77;18.57;;;7.30;99.90;;;;;;4946828;29;20654;-94
2022/10/04 00:05:02;;;;;;;20.67;18.47;;;7.30;99.90;;;;;;4950864;29;20652;-95
2022/10/04 00:07:33;;;;;;;20.20;18.10;;;6.90;99.90;;;;;;4954119;29;21269;-95
2022/10/04 00:13:54;;;;;;;19.50;17.80;;;7.30;99.90;;;;;;4967794;28;20635;-95
2022/10/04 00:16:57;;;;;;;17.60;15.90;;;7.30;99.90;;;;;;4980052;28;20618;-96
2022/10/04 00:31:27;;;;;;;18.60;16.70;;;7.20;99.90;;;;;;4968834;28;20699;-95
2022/10/04 00:33:57;;;;;;;20.40;18.30;;;7.10;99.90;;;;;;4962299;29;20709;-95
2022/10/04 00:40:03;;;;;;;18.67;16.87;;;7.10;99.90;;;;;;4970706;28;20571;-95
2022/10/04 00:42:41;;;;;;;22.80;18.80;;;6.70;99.90;;;;;;4962271;29;20734;-95
2022/10/04 00:45:17;;;;;;;19.97;17.97;;;7.10;99.90;;;;;;4957264;29;20703;-95
2022/10/04 00:48:03;;;;;;;20.37;18.40;;;7.10;99.90;;;;;;4954660;29;20654;-95
2022/10/04 00:50:36;;;;;;;19.77;17.97;;;7.10;99.90;;;;;;4944700;29;20662;-94
2022/10/04 00:53:12;;;;;;;20.97;18.70;;;7.10;99.90;;;;;;4951315;28;20670;-94
2022/10/04 00:55:45;;;;;;;19.63;17.73;;;7.10;99.90;;;;;;4925210;29;20636;-94
2022/10/04 00:58:18;;;;;;;21.67;19.07;;;7.20;99.90;;;;;;4944659;29;20635;-95
2022/10/04 01:00:49;;;;;;;19.90;18.03;;;7.40;99.90;;;;;;4950749;29;20627;-94
2022/10/04 01:03:26;;;;;;;20.13;16.80;;;7.40;99.90;;;;;;4963842;28;20641;-96
2022/10/04 01:05:58;;;;;;;20.13;17.57;;;7.40;99.90;;;;;;4967421;28;20666;-94
2022/10/04 01:08:30;;;;;;;20.47;18.30;;;7.10;99.90;;;;;;4960133;28;20643;-95
2022/10/04 01:11:01;;;;;;;18.67;16.93;;;7.40;99.90;;;;;;4960919;28;20668;-96
2022/10/04 01:13:31;;;;;;;20.80;18.20;;;7.50;99.90;;;;;;4951670;29;20681;-96
2022/10/04 01:16:06;;;;;;;33.43;19.63;;;7.40;99.90;;;;;;4946455;29;20646;-95
2022/10/04 01:18:35;;;;;;;103.43;29.33;;;7.40;99.90;;;;;;4955858;29;20654;-95
2022/10/04 01:21:06;;;;;;;160.63;36.93;;;7.50;99.90;;;;;;4963233;29;21054;-95
2022/10/04 01:23:45;;;;;;;65.70;26.40;;;7.50;99.90;;;;;;4966494;29;20785;-95
2022/10/04 01:26:41;;;;;;;177.60;31.83;;;7.50;99.90;;;;;;4949963;29;21218;-95
2022/10/04 01:29:15;;;;;;;138.27;30.97;;;7.50;99.90;;;;;;4954700;29;20631;-96
2022/10/04 01:31:45;;;;;;;61.70;26.17;;;7.40;99.90;;;;;;4956859;29;20733;-96
2022/10/04 01:34:15;;;;;;;152.17;36.23;;;7.40;99.90;;;;;;4955591;29;20713;-96
2022/10/04 01:36:44;;;;;;;119.07;31.10;;;7.40;99.90;;;;;;4972191;28;20637;-94
2022/10/04 01:39:13;;;;;;;67.63;24.20;;;7.40;99.90;;;;;;4973229;28;20690;-96
2022/10/04 01:41:54;;;;;;;40.43;22.67;;;7.50;99.90;;;;;;4971024;28;20656;-95
2022/10/04 01:44:30;;;;;;;76.37;24.10;;;7.40;99.90;;;;;;4977062;28;20640;-96
2022/10/04 01:47:01;;;;;;;26.77;21.50;;;7.30;99.90;;;;;;4968063;28;20703;-95
2022/10/04 01:49:32;;;;;;;41.33;21.63;;;7.40;99.90;;;;;;4974149;29;20875;-95
2022/10/04 01:52:04;;;;;;;28.17;20.77;;;7.40;99.90;;;;;;4951995;29;20686;-95
2022/10/04 01:54:36;;;;;;;59.13;25.00;;;7.50;99.90;;;;;;4953427;29;20760;-96
2022/10/04 01:57:11;;;;;;;37.87;23.00;;;7.20;99.90;;;;;;4959802;29;20640;-95
2022/10/04 01:59:46;;;;;;;26.70;22.40;;;7.50;99.90;;;;;;4949664;29;21232;-94
2022/10/04 02:02:22;;;;;;;30.60;22.90;;;7.40;99.90;;;;;;4949057;29;20749;-95
2022/10/04 02:04:56;;;;;;;494.83;50.33;;;7.50;99.90;;;;;;4947194;29;21030;-95
2022/10/04 02:07:25;;;;;;;282.00;39.00;;;7.50;99.90;;;;;;4956058;29;20676;-95
2022/10/04 02:09:59;;;;;;;343.23;37.80;;;7.30;99.90;;;;;;4954498;29;20959;-95
2022/10/04 02:12:30;;;;;;;437.97;47.03;;;7.20;99.90;;;;;;4952632;28;20681;-95
2022/10/04 02:15:04;;;;;;;220.37;30.10;;;7.10;99.90;;;;;;4948184;29;20643;-95
2022/10/04 02:17:41;;;;;;;194.47;33.27;;;7.10;99.90;;;;;;4948785;29;20637;-94
2022/10/04 02:20:14;;;;;;;317.10;42.20;;;7.20;99.90;;;;;;4954595;29;20656;-95
2022/10/04 02:22:43;;;;;;;359.07;56.43;;;7.20;99.90;;;;;;4947874;29;20765;-96
2022/10/04 02:25:14;;;;;;;103.37;27.17;;;7.30;99.90;;;;;;4948711;29;20641;-95
2022/10/04 02:27:41;;;;;;;185.40;34.73;;;7.20;99.90;;;;;;4952064;29;20640;-95
2022/10/04 02:30:10;;;;;;;350.60;38.80;;;7.00;99.90;;;;;;4954596;29;20649;-96
2022/10/04 02:35:24;;;;;;;428.20;39.20;;;7.30;99.90;;;;;;4951336;29;20947;-96
2022/10/04 02:37:58;;;;;;;210.40;25.27;;;7.20;99.90;;;;;;4946087;29;20712;-94
2022/10/04 02:40:31;;;;;;;447.60;38.77;;;7.40;99.90;;;;;;4947467;28;20706;-94
2022/10/04 02:43:02;;;;;;;359.87;35.83;;;6.80;99.90;;;;;;4954969;28;20663;-94
2022/10/04 02:45:45;;;;;;;722.17;59.47;;;7.20;99.90;;;;;;4950693;29;21209;-95
2022/10/04 02:48:31;;;;;;;243.50;27.40;;;6.80;99.90;;;;;;4950886;29;20666;-95
2022/10/04 02:51:06;;;;;;;675.73;55.90;;;7.10;99.90;;;;;;4967201;29;20639;-95
2022/10/04 03:02:38;;;;;;;540.33;43.97;;;6.70;99.90;;;;;;5016193;28;20658;-95
2022/10/04 03:05:09;;;;;;;509.13;43.33;;;6.60;99.90;;;;;;5025211;28;20656;-95
2022/10/04 03:22:48;;;;;;;199.30;27.27;;;6.90;99.90;;;;;;4999296;28;20644;-96
2022/10/04 03:26:19;;;;;;;190.23;26.27;;;6.90;99.90;;;;;;4981823;28;20653;-96
2022/10/04 03:28:49;;;;;;;206.00;32.63;;;6.80;99.90;;;;;;4987453;28;21191;-94
2022/10/04 03:31:18;;;;;;;233.60;32.90;;;6.80;99.90;;;;;;4982517;28;20680;-96
2022/10/04 03:33:47;;;;;;;123.80;23.57;;;6.60;99.90;;;;;;4983040;28;21165;-94
2022/10/04 03:36:18;;;;;;;186.17;26.27;;;6.60;99.90;;;;;;4980557;28;20640;-95
2022/10/04 03:38:49;;;;;;;100.07;18.80;;;6.60;99.90;;;;;;4976997;28;20737;-95
2022/10/04 03:41:17;;;;;;;73.30;18.10;;;6.40;99.90;;;;;;4972998;28;20652;-94
2022/10/04 03:43:48;;;;;;;257.20;33.20;;;6.70;99.90;;;;;;4970533;28;20636;-96
2022/10/04 03:46:18;;;;;;;110.17;21.00;;;6.80;99.90;;;;;;4976349;28;21208;-94
2022/10/04 03:48:49;;;;;;;219.37;30.87;;;6.30;99.90;;;;;;4974334;28;20640;-94
2022/10/04 03:51:23;;;;;;;239.20;30.90;;;6.40;99.90;;;;;;4973983;28;20716;-93
2022/10/04 03:53:53;;;;;;;400.30;39.80;;;6.70;99.90;;;;;;4968320;28;20737;-96
2022/10/04 03:56:25;;;;;;;230.13;31.73;;;6.30;99.90;;;;;;4973087;28;20655;-94
2022/10/04 03:58:53;;;;;;;237.47;28.30;;;6.30;99.90;;;;;;4979176;28;20629;-93
2022/10/04 04:01:34;;;;;;;148.20;26.57;;;6.60;99.90;;;;;;4980182;28;20657;-96
2022/10/04 04:04:11;;;;;;;139.03;20.63;;;6.60;99.90;;;;;;4977066;28;20753;-93
2022/10/04 04:06:47;;;;;;;154.17;25.13;;;6.80;99.90;;;;;;4972684;28;20660;-95
2022/10/04 04:12:37;;;;;;;157.33;29.63;;;6.30;99.90;;;;;;4976835;28;20739;-94
2022/10/04 04:15:06;;;;;;;121.13;20.93;;;6.20;99.90;;;;;;4975274;28;20681;-95
2022/10/04 04:17:44;;;;;;;305.70;32.80;;;6.40;99.90;;;;;;4972679;28;20637;-96
2022/10/04 04:20:25;;;;;;;170.20;27.83;;;6.30;99.90;;;;;;4970806;28;20637;-94
2022/10/04 04:23:02;;;;;;;344.70;33.77;;;6.30;99.90;;;;;;4978204;28;21161;-94
2022/10/04 04:25:34;;;;;;;419.63;40.50;;;6.30;99.90;;;;;;4973903;28;20736;-93
2022/10/04 04:28:07;;;;;;;141.03;21.73;;;6.10;99.90;;;;;;4974259;28;21198;-93
2022/10/04 04:30:46;;;;;;;100.43;22.23;;;6.30;99.90;;;;;;4968769;28;20677;-94
2022/10/04 04:33:22;;;;;;;180.57;30.13;;;5.80;99.90;;;;;;4980755;28;20644;-93
2022/10/04 04:35:55;;;;;;;146.70;24.00;;;6.20;99.90;;;;;;4966840;28;20653;-94
2022/10/04 04:38:24;;;;;;;125.37;22.37;;;6.10;99.90;;;;;;4975402;28;21242;-94
2022/10/04 04:40:54;;;;;;;85.97;19.67;;;6.10;99.90;;;;;;4970155;28;20756;-94
2022/10/04 04:43:24;;;;;;;34.70;17.17;;;6.20;99.90;;;;;;4973903;28;20630;-93
2022/10/04 04:45:58;;;;;;;59.70;18.30;;;6.60;99.90;;;;;;4969502;28;20726;-93
2022/10/04 04:48:26;;;;;;;174.13;23.77;;;6.60;99.90;;;;;;4966879;28;20656;-94
2022/10/04 04:50:55;;;;;;;113.97;19.87;;;5.70;99.90;;;;;;4973289;28;20754;-94
2022/10/04 04:53:27;;;;;;;72.97;17.83;;;6.20;99.90;;;;;;4971468;28;20637;-93
2022/10/04 04:55:58;;;;;;;120.60;21.23;;;5.80;99.90;;;;;;4974551;28;20640;-94
2022/10/04 04:58:31;;;;;;;238.43;28.90;;;6.50;99.90;;;;;;4974646;28;20736;-94
2022/10/04 05:01:02;;;;;;;191.40;25.73;;;6.30;99.90;;;;;;4972871;28;20697;-93
2022/10/04 05:03:33;;;;;;;64.83;14.83;;;6.00;99.90;;;;;;4972210;28;20630;-93
2022/10/04 05:06:03;;;;;;;109.47;18.50;;;6.40;99.90;;;;;;4970868;28;20678;-93
2022/10/04 05:08:31;;;;;;;63.60;14.33;;;6.20;99.90;;;;;;4974708;28;20666;-93
2022/10/04 05:11:06;;;;;;;110.73;17.33;;;6.50;99.90;;;;;;4972784;28;21241;-94
2022/10/04 05:13:39;;;;;;;140.33;21.60;;;6.70;99.90;;;;;;4971174;28;20625;-94
2022/10/04 05:16:11;;;;;;;54.50;14.30;;;6.60;99.90;;;;;;4977623;28;20668;-95
2022/10/04 05:18:42;;;;;;;159.53;27.90;;;6.60;99.90;;;;;;4979936;28;20620;-93
2022/10/04 05:21:24;;;;;;;217.83;23.70;;;6.00;99.90;;;;;;4973165;28;20680;-96
2022/10/04 05:24:13;;;;;;;187.60;23.20;;;6.30;99.90;;;;;;4967658;28;20681;-94
2022/10/04 05:26:42;;;;;;;223.27;26.83;;;6.10;99.90;;;;;;4964382;28;20629;-95
2022/10/04 05:29:17;;;;;;;75.97;16.10;;;5.80;99.90;;;;;;4974857;28;20740;-94
2022/10/04 05:31:50;;;;;;;167.90;22.53;;;6.40;99.90;;;;;;4972364;28;20673;-94
2022/10/04 05:34:24;;;;;;;111.73;17.30;;;6.40;99.90;;;;;;4974288;28;21545;-93
2022/10/04 05:37:14;;;;;;;89.47;13.53;;;6.30;99.90;;;;;;4972506;28;20615;-93
2022/10/04 05:39:47;;;;;;;71.97;14.40;;;6.30;99.90;;;;;;4963677;28;20633;-94
2022/10/04 05:42:22;;;;;;;57.77;14.50;;;6.40;99.90;;;;;;4971981;28;20665;-94
2022/10/04 05:44:52;;;;;;;28.10;12.83;;;6.50;99.90;;;;;;4972849;28;20716;-94
2022/10/04 05:47:22;;;;;;;39.57;12.50;;;6.40;99.90;;;;;;4975252;28;20644;-92
2022/10/04 05:49:54;;;;;;;57.47;14.57;;;6.40;99.90;;;;;;4969756;28;20642;-94
2022/10/04 05:52:30;;;;;;;48.77;13.00;;;6.50;99.90;;;;;;4973187;28;20677;-94
2022/10/04 05:55:17;;;;;;;85.50;18.90;;;6.40;99.90;;;;;;4966867;28;20631;-94
2022/10/04 05:57:56;;;;;;;56.23;14.37;;;6.50;99.90;;;;;;4972831;28;20983;-95
2022/10/04 06:00:35;;;;;;;38.30;12.47;;;6.40;99.90;;;;;;4977891;28;20684;-93
2022/10/04 06:03:26;;;;;;;25.13;11.60;;;6.40;99.90;;;;;;4980960;28;20636;-94
2022/10/04 06:06:06;;;;;;;25.10;11.37;;;6.60;99.90;;;;;;4982492;28;21256;-95
2022/10/04 06:08:49;;;;;;;32.13;12.10;;;6.60;99.90;;;;;;4975670;28;20633;-95
2022/10/04 06:11:28;;;;;;;69.13;13.90;;;6.50;99.90;;;;;;4971081;28;21308;-95
2022/10/04 06:14:19;;;;;;;11.43;9.53;;;6.90;99.90;;;;;;4970451;28;20981;-94
2022/10/04 06:17:13;;;;;;;13.77;9.87;;;6.80;99.90;;;;;;4976390;28;20732;-95
2022/10/04 06:20:03;;;;;;;11.77;9.20;;;6.50;99.90;;;;;;4976115;28;20631;-92
2022/10/04 06:22:32;;;;;;;14.70;9.50;;;6.20;99.90;;;;;;4974212;28;20738;-92
2022/10/04 06:25:08;;;;;;;59.27;12.53;;;6.60;99.90;;;;;;4970512;28;20980;-92
2022/10/04 06:27:40;;;;;;;10.47;9.57;;;6.90;99.90;;;;;;4973957;28;20601;-93
2022/10/04 06:30:13;;;;;;;22.20;10.50;;;6.50;99.90;;;;;;4981681;28;20632;-92
2022/10/04 06:33:09;;;;;;;157.23;20.07;;;6.80;99.90;;;;;;4970739;28;20668;-93
2022/10/04 06:35:56;;;;;;;65.73;14.40;;;6.90;99.90;;;;;;4972639;28;20644;-93
2022/10/04 06:38:43;;;;;;;91.53;14.37;;;7.00;99.90;;;;;;4972804;28;20621;-93
2022/10/04 06:41:45;;;;;;;35.40;10.53;;;7.30;99.90;;;;;;4974662;28;20818;-92
2022/10/04 06:44:51;;;;;;;35.87;11.93;;;7.20;99.90;;;;;;4982383;28;21141;-95
2022/10/04 06:47:33;;;;;;;10.17;9.30;;;7.10;99.90;;;;;;4970967;28;20636;-95
2022/10/04 06:50:13;;;;;;;12.57;10.27;;;6.70;99.90;;;;;;4991238;28;20633;-95
2022/10/04 06:53:14;;;;;;;52.53;11.50;;;6.80;99.90;;;;;;4981633;28;20662;-96
2022/10/04 06:56:20;;;;;;;70.27;13.33;;;7.10;99.90;;;;;;4978203;28;20639;-95
2022/10/04 06:59:03;;;;;;;132.63;18.23;;;7.20;99.90;;;;;;4932820;28;20629;-95
2022/10/04 07:01:33;;;;;;;171.20;18.33;;;7.20;99.90;;;;;;4983278;28;20673;-95
2022/10/04 07:04:14;;;;;;;62.40;12.67;;;7.20;99.90;;;;;;4990409;28;20640;-95
2022/10/04 07:06:48;;;;;;;150.10;18.53;;;7.20;99.90;;;;;;4994659;28;20628;-94
2022/10/04 07:09:22;;;;;;;17.93;11.67;;;7.30;99.90;;;;;;5001017;28;20644;-94
2022/10/04 07:12:01;;;;;;;16.20;10.27;;;7.40;99.90;;;;;;4973099;28;20787;-95
2022/10/04 07:14:34;;;;;;;37.13;12.27;;;7.50;99.90;;;;;;4974234;28;20626;-94
2022/10/04 07:17:09;;;;;;;11.47;10.47;;;7.20;99.90;;;;;;4976646;28;20641;-95
2022/10/04 07:19:43;;;;;;;12.40;9.80;;;7.10;99.90;;;;;;4975217;28;20666;-96
2022/10/04 07:22:16;;;;;;;14.00;10.43;;;7.20;99.90;;;;;;4979589;28;20691;-94
2022/10/04 07:24:58;;;;;;;10.77;9.77;;;7.20;99.90;;;;;;4976502;28;20642;-94
2022/10/04 07:27:32;;;;;;;11.23;10.07;;;7.00;99.90;;;;;;4979429;28;20630;-93
2022/10/04 07:30:03;;;;;;;10.77;9.77;;;7.60;99.90;;;;;;4966245;28;20633;-89
2022/10/04 07:32:37;;;;;;;10.40;9.63;;;7.40;99.90;;;;;;4965902;28;20658;-89
2022/10/04 07:35:15;;;;;;;21.07;10.43;;;7.70;99.90;;;;;;4963485;28;20630;-90
2022/10/04 07:37:49;;;;;;;12.70;10.20;;;7.90;99.90;;;;;;4957531;28;21330;-88
2022/10/04 07:40:25;;;;;;;15.83;10.17;;;7.40;99.90;;;;;;4963298;28;20705;-90
2022/10/04 07:42:58;;;;;;;10.70;9.70;;;7.70;99.90;;;;;;4961149;28;20653;-89
2022/10/04 07:45:31;;;;;;;11.27;10.37;;;7.50;99.90;;;;;;4964278;28;20729;-89
2022/10/04 07:48:14;;;;;;;9.80;9.00;;;7.80;99.90;;;;;;4969661;28;20649;-89
2022/10/04 07:50:50;;;;;;;9.40;8.60;;;8.10;99.90;;;;;;4962776;28;20982;-88
2022/10/04 07:53:20;;;;;;;8.57;7.97;;;8.00;99.90;;;;;;4964137;28;21123;-91
2022/10/04 07:55:53;;;;;;;8.40;7.80;;;8.50;99.90;;;;;;4967944;28;21225;-88
2022/10/04 07:58:42;;;;;;;7.77;7.17;;;8.20;99.90;;;;;;4962893;28;20672;-89
2022/10/04 08:01:22;;;;;;;8.30;7.60;;;8.40;99.90;;;;;;4961988;28;20654;-87
2022/10/04 08:03:59;;;;;;;8.03;7.50;;;8.90;99.90;;;;;;4964073;28;20629;-88
2022/10/04 08:06:33;;;;;;;10.43;9.10;;;9.00;99.90;;;;;;4963961;28;20637;-88
2022/10/04 08:09:25;;;;;;;8.43;7.77;;;9.10;99.90;;;;;;4963563;28;20642;-88
2022/10/04 08:12:01;;;;;;;7.53;6.70;;;9.40;99.90;;;;;;4962859;28;20673;-88
2022/10/04 08:14:49;;;;;;;6.90;6.50;;;9.40;99.90;;;;;;4967736;28;20664;-89
2022/10/04 08:17:40;;;;;;;7.70;7.10;;;9.00;99.90;;;;;;4965244;28;20665;-89
2022/10/04 08:20:26;;;;;;;6.87;6.30;;;9.40;99.90;;;;;;4963700;28;20649;-89
2022/10/04 08:23:05;;;;;;;6.53;6.10;;;9.60;99.90;;;;;;4965503;28;20645;-89
2022/10/04 08:25:41;;;;;;;8.37;7.63;;;9.60;99.90;;;;;;4962320;28;20665;-89
2022/10/04 08:31:13;;;;;;;9.90;8.90;;;9.90;99.90;;;;;;4959601;28;20578;-88
2022/10/04 08:34:02;;;;;;;10.80;7.90;;;10.10;99.90;;;;;;4962544;28;20665;-88
2022/10/04 08:36:44;;;;;;;11.13;8.83;;;10.00;99.90;;;;;;4965129;28;21115;-89
2022/10/04 08:39:26;;;;;;;8.73;7.87;;;9.80;99.90;;;;;;4960268;28;20645;-89
2022/10/04 08:42:25;;;;;;;12.57;9.63;;;10.00;99.90;;;;;;4962756;28;20637;-88
2022/10/04 08:45:25;;;;;;;8.50;7.70;;;10.50;99.90;;;;;;4964062;28;20641;-88
2022/10/04 08:48:27;;;;;;;8.13;7.40;;;10.40;99.90;;;;;;4965299;28;20713;-89
2022/10/04 08:51:35;;;;;;;9.13;7.40;;;10.20;99.90;;;;;;4945367;28;20657;-89
2022/10/04 08:54:42;;;;;;;11.50;7.13;;;11.00;99.90;;;;;;4965942;28;20701;-88
2022/10/04 08:57:45;;;;;;;9.10;7.20;;;10.70;99.90;;;;;;4965818;28;20586;-89
2022/10/04 09:00:22;;;;;;;8.03;7.27;;;11.50;99.90;;;;;;4947429;28;20637;-89
2022/10/04 09:03:13;;;;;;;12.10;6.27;;;11.90;99.90;;;;;;4958743;28;20636;-90
2022/10/04 09:05:57;;;;;;;8.70;6.43;;;12.00;99.90;;;;;;4960359;28;20638;-89
2022/10/04 09:09:09;;;;;;;6.40;5.90;;;12.10;99.90;;;;;;4967176;28;21244;-90
2022/10/04 09:11:50;;;;;;;7.33;6.33;;;12.20;99.90;;;;;;4966335;28;20770;-91
2022/10/04 09:15:02;;;;;;;10.50;6.40;;;12.10;99.90;;;;;;4973595;28;20649;-89
2022/10/04 09:17:43;;;;;;;6.77;5.63;;;12.30;99.90;;;;;;4965221;28;20618;-90
2022/10/04 09:20:21;;;;;;;7.87;5.97;;;12.30;99.90;;;;;;4963534;28;20633;-91
2022/10/04 09:22:56;;;;;;;13.23;6.83;;;12.50;99.90;;;;;;4965218;28;21059;-91
2022/10/04 09:25:49;;;;;;;7.37;5.47;;;12.70;99.90;;;;;;4965964;28;20625;-91
2022/10/04 09:28:49;;;;;;;4.03;3.60;;;13.30;99.90;;;;;;4932946;28;20681;-91
2022/10/04 09:31:47;;;;;;;5.73;3.40;;;12.70;99.90;;;;;;4961099;28;20633;-90
2022/10/04 09:34:28;;;;;;;6.73;4.03;;;13.10;99.90;;;;;;4924361;28;20898;-91
2022/10/04 09:37:25;;;;;;;7.43;3.70;;;13.20;99.90;;;;;;4973846;28;20721;-91
2022/10/04 09:40:22;;;;;;;6.43;4.37;;;13.50;99.90;;;;;;4961836;28;20725;-91
2022/10/04 09:43:36;;;;;;;6.37;3.90;;;13.50;99.90;;;;;;4967147;28;21197;-91
2022/10/04 09:46:38;;;;;;;4.67;4.17;;;14.00;99.90;;;;;;4926643;28;20813;-91
2022/10/04 09:49:22;;;;;;;5.33;3.87;;;14.40;99.90;;;;;;4964638;28;20658;-92
2022/10/04 09:52:17;;;;;;;6.10;4.50;;;14.60;99.90;;;;;;4974149;28;20625;-91
2022/10/04 09:55:02;;;;;;;10.67;4.07;;;14.80;99.90;;;;;;4971094;28;20733;-92
2022/10/04 09:57:43;;;;;;;7.23;4.03;;;15.30;99.90;;;;;;4966253;28;20635;-92
2022/10/04 10:00:22;;;;;;;3.93;3.03;;;15.20;99.90;;;;;;4973000;28;20620;-92
2022/10/04 10:03:26;;;;;;;5.27;3.70;;;15.80;99.90;;;;;;4963620;28;20677;-92
2022/10/04 10:06:20;;;;;;;5.00;3.67;;;14.90;99.90;;;;;;4967852;28;21201;-92
2022/10/04 10:09:10;;;;;;;5.93;3.30;;;15.30;99.90;;;;;;4971522;28;20650;-91
2022/10/04 10:15:10;;;;;;;5.57;2.50;;;16.30;99.90;;;;;;4964897;28;20932;-92
2022/10/04 10:17:43;;;;;;;3.57;2.80;;;17.10;99.90;;;;;;4932783;28;20655;-91
2022/10/04 10:20:35;;;;;;;4.50;2.67;;;16.20;99.90;;;;;;4972605;28;20673;-92
2022/10/04 10:23:39;;;;;;;4.30;2.77;;;17.10;99.90;;;;;;4968960;28;20665;-92
2022/10/04 10:26:30;;;;;;;5.90;3.80;;;17.50;99.90;;;;;;4965921;28;21201;-90
2022/10/04 10:29:22;;;;;;;4.10;3.17;;;18.70;99.90;;;;;;4966254;28;20768;-90
2022/10/04 10:32:08;;;;;;;4.07;3.07;;;19.20;99.90;;;;;;4964629;28;20748;-91
2022/10/04 10:35:11;;;;;;;4.63;2.87;;;17.90;99.90;;;;;;4969852;28;20681;-92
2022/10/04 10:37:52;;;;;;;4.33;2.53;;;18.20;99.90;;;;;;4967915;28;20725;-92
2022/10/04 10:40:47;;;;;;;5.10;3.37;;;18.60;99.90;;;;;;4966052;28;20660;-92
2022/10/04 10:43:39;;;;;;;5.70;2.87;;;18.80;99.90;;;;;;4965919;28;20609;-92
2022/10/04 10:46:45;;;;;;;3.50;2.40;;;18.70;99.90;;;;;;4959460;28;20642;-92
2022/10/04 10:49:40;;;;;;;3.80;2.33;;;20.20;99.00;;;;;;4945583;28;20631;-93
2022/10/04 10:52:38;;;;;;;4.83;3.13;;;20.90;94.30;;;;;;4964890;28;20641;-93
2022/10/04 10:55:28;;;;;;;4.27;3.17;;;21.50;91.00;;;;;;4969123;28;20675;-93
2022/10/04 10:58:36;;;;;;;5.40;5.10;;;21.90;90.10;;;;;;4967284;28;20624;-93
2022/10/04 11:01:33;;;;;;;5.10;4.60;;;21.50;89.20;;;;;;4951280;28;21250;-92
2022/10/04 11:04:23;;;;;;;3.07;2.60;;;21.50;91.30;;;;;;4968833;28;20633;-93
2022/10/04 11:07:30;;;;;;;6.60;5.50;;;22.70;86.70;;;;;;4975581;28;21197;-93
2022/10/04 11:10:42;;;;;;;5.10;4.70;;;21.90;91.20;;;;;;4973908;28;20700;-93
2022/10/04 11:13:44;;;;;;;4.80;2.80;;;22.30;86.90;;;;;;4915902;29;20709;-92
2022/10/04 11:16:56;;;;;;;6.77;2.53;;;24.10;78.90;;;;;;4920678;28;20640;-93
2022/10/04 11:20:03;;;;;;;3.57;2.83;;;25.00;70.20;;;;;;4981124;28;20634;-93
2022/10/04 11:23:19;;;;;;;3.53;3.17;;;24.60;67.80;;;;;;4953186;28;20759;-91
2022/10/04 11:26:26;;;;;;;3.37;2.87;;;24.00;69.10;;;;;;4970990;28;20646;-91
2022/10/04 11:29:09;;;;;;;4.60;2.80;;;24.90;69.30;;;;;;4949467;28;20669;-92
2022/10/04 11:31:56;;;;;;;7.60;3.00;;;23.60;73.30;;;;;;4973952;28;20705;-91
2022/10/04 11:35:14;;;;;;;3.87;2.50;;;23.10;75.20;;;;;;4970937;28;20665;-92
2022/10/04 11:38:01;;;;;;;4.73;2.77;;;25.70;69.50;;;;;;4978916;28;20622;-92
2022/10/04 11:40:48;;;;;;;5.70;3.07;;;26.00;63.40;;;;;;4965345;28;20692;-89
2022/10/04 11:43:37;;;;;;;5.10;3.07;;;24.70;65.10;;;;;;4962900;28;20629;-94
2022/10/04 11:46:20;;;;;;;5.40;3.30;;;25.10;65.80;;;;;;4963863;28;20634;-91
2022/10/04 11:48:58;;;;;;;3.93;2.70;;;23.90;65.60;;;;;;4962532;28;21205;-91
2022/10/04 11:52:01;;;;;;;4.70;3.10;;;24.10;68.00;;;;;;4962580;28;20665;-91
2022/10/04 11:54:58;;;;;;;5.23;2.87;;;23.40;68.80;;;;;;4931887;28;20677;-90
2022/10/04 11:57:31;;;;;;;4.60;2.67;;;23.90;66.30;;;;;;4966091;28;20629;-90
2022/10/04 12:00:10;;;;;;;4.13;2.80;;;23.30;68.70;;;;;;4966653;28;20732;-93
2022/10/04 12:03:01;;;;;;;3.80;1.93;;;24.00;68.70;;;;;;4963537;28;21209;-93
2022/10/04 12:05:40;;;;;;;4.80;2.53;;;24.10;67.10;;;;;;4969193;28;20637;-94
2022/10/04 12:08:20;;;;;;;2.70;2.37;;;24.30;66.40;;;;;;4971897;28;20629;-92
2022/10/04 12:11:08;;;;;;;3.43;2.23;;;23.80;66.70;;;;;;4968042;28;20637;-93
2022/10/04 12:14:01;;;;;;;3.27;2.30;;;23.90;69.60;;;;;;4971123;28;20668;-95
2022/10/04 12:16:47;;;;;;;3.67;2.57;;;25.30;64.70;;;;;;4963087;28;20629;-91
2022/10/04 12:19:36;;;;;;;2.30;2.10;;;24.70;64.80;;;;;;4964313;28;20637;-89
2022/10/04 12:22:29;;;;;;;3.13;2.50;;;25.10;62.60;;;;;;4962284;28;20645;-89
2022/10/04 12:25:19;;;;;;;3.07;2.23;;;26.60;59.70;;;;;;4963024;28;20625;-90
2022/10/04 12:28:15;;;;;;;2.80;2.03;;;26.90;58.30;;;;;;4968044;28;20633;-90
2022/10/04 12:31:10;;;;;;;2.80;2.50;;;26.60;58.80;;;;;;4958559;28;20642;-89
2022/10/04 12:33:47;;;;;;;3.00;2.30;;;25.80;58.80;;;;;;4963750;28;20680;-92
2022/10/04 12:36:35;;;;;;;3.10;2.20;;;24.50;64.40;;;;;;4965231;28;20631;-89
2022/10/04 12:39:22;;;;;;;4.10;2.40;;;24.30;65.40;;;;;;4961899;28;20637;-91
2022/10/04 12:42:01;;;;;;;2.90;2.57;;;23.60;70.40;;;;;;4960762;28;20674;-90
2022/10/04 12:44:41;;;;;;;5.00;2.80;;;22.30;78.90;;;;;;4964388;28;20634;-90
2022/10/04 12:47:52;;;;;;;2.27;2.10;;;23.00;76.90;;;;;;4964324;28;20613;-90
2022/10/04 12:50:31;;;;;;;5.17;2.70;;;22.60;75.10;;;;;;4958266;28;20634;-91
2022/10/04 12:53:09;;;;;;;3.13;2.13;;;24.30;69.10;;;;;;4964191;28;21028;-89
2022/10/04 12:56:05;;;;;;;3.87;2.10;;;24.70;64.80;;;;;;4964250;28;20618;-91
2022/10/04 12:58:54;;;;;;;3.30;2.20;;;25.70;63.00;;;;;;4966519;28;20746;-90
2022/10/04 13:01:28;;;;;;;5.63;2.53;;;26.20;59.90;;;;;;4967122;28;20763;-91
2022/10/04 13:04:21;;;;;;;4.33;2.53;;;26.30;58.20;;;;;;4963113;28;20764;-91
2022/10/04 13:07:05;;;;;;;3.37;2.03;;;27.00;58.10;;;;;;4958990;28;20664;-93
2022/10/04 13:09:54;;;;;;;3.73;2.37;;;27.90;56.10;;;;;;4960942;28;20660;-95
2022/10/04 13:12:36;;;;;;;2.77;2.43;;;27.90;54.90;;;;;;4972906;28;20671;-95
2022/10/04 13:15:22;;;;;;;2.23;1.70;;;27.50;56.50;;;;;;4980476;28;20666;-94
2022/10/04 13:17:59;;;;;;;2.40;2.13;;;27.60;54.50;;;;;;4985679;28;20637;-96
2022/10/04 13:20:41;;;;;;;2.60;1.80;;;27.50;54.50;;;;;;4989952;28;20627;-95
2022/10/04 13:23:24;;;;;;;3.13;1.87;;;27.40;55.20;;;;;;4989978;28;20657;-95
2022/10/04 13:26:22;;;;;;;3.47;1.90;;;28.30;54.90;;;;;;4976485;28;20634;-95
2022/10/04 13:29:00;;;;;;;4.10;2.20;;;27.40;53.30;;;;;;4982448;28;20640;-94
2022/10/04 13:31:33;;;;;;;2.40;1.70;;;27.70;53.70;;;;;;4981564;28;20790;-95
2022/10/04 13:34:09;;;;;;;2.53;2.10;;;28.20;52.60;;;;;;4974615;28;21290;-91
2022/10/04 13:36:51;;;;;;;5.00;2.10;;;28.20;52.10;;;;;;4961075;28;20209;-90
2022/10/04 13:39:30;;;;;;;3.27;1.90;;;27.60;53.10;;;;;;4963738;28;20643;-89
2022/10/04 13:42:16;;;;;;;3.27;2.17;;;28.00;52.50;;;;;;4966342;28;20670;-89
2022/10/04 13:45:04;;;;;;;2.00;1.80;;;27.30;53.10;;;;;;4963872;28;20613;-91
2022/10/04 13:47:54;;;;;;;3.23;1.70;;;27.20;53.30;;;;;;4968670;28;20648;-90
2022/10/04 13:50:33;;;;;;;2.53;1.63;;;27.40;52.60;;;;;;4965053;28;20644;-90
2022/10/04 13:58:56;;;;;;;2.47;1.73;;;28.20;50.50;;;;;;4973108;28;20655;-90
2022/10/04 14:01:55;;;;;;;3.83;1.80;;;26.90;52.20;;;;;;4968161;28;20648;-90
2022/10/04 14:04:44;;;;;;;2.60;1.70;;;27.20;51.80;;;;;;4965249;28;20664;-92
2022/10/04 14:07:38;;;;;;;2.10;1.83;;;27.70;51.70;;;;;;4974563;28;20648;-91
2022/10/04 14:10:33;;;;;;;2.10;1.90;;;27.90;51.20;;;;;;4964751;28;20290;-90
2022/10/04 14:13:33;;;;;;;1.70;1.60;;;27.70;51.50;;;;;;4974017;28;20612;-90
2022/10/04 14:16:33;;;;;;;2.13;1.80;;;28.10;51.80;;;;;;4968516;28;20572;-91
2022/10/04 14:19:25;;;;;;;2.00;1.90;;;27.70;51.70;;;;;;4968511;28;20733;-92
2022/10/04 14:22:22;;;;;;;5.40;1.70;;;28.00;52.30;;;;;;4970949;28;20672;-91
2022/10/04 14:25:30;;;;;;;6.03;1.43;;;27.70;51.10;;;;;;4972968;28;21145;-91
2022/10/04 14:28:44;;;;;;;2.00;1.80;;;27.10;52.60;;;;;;4964182;28;20640;-90
2022/10/04 14:31:26;;;;;;;3.17;1.87;;;27.60;51.70;;;;;;4943280;28;20757;-91
2022/10/04 14:34:19;;;;;;;2.50;1.73;;;27.10;53.80;;;;;;4968933;28;20736;-92
2022/10/04 14:37:13;;;;;;;3.00;2.23;;;26.30;54.40;;;;;;4970807;28;20768;-93
2022/10/04 14:40:03;;;;;;;5.57;1.80;;;27.00;55.00;;;;;;4970854;28;20774;-92
2022/10/04 14:42:50;;;;;;;2.60;2.10;;;27.00;53.80;;;;;;4944998;28;20748;-93
2022/10/04 14:45:44;;;;;;;4.37;2.20;;;27.00;53.80;;;;;;4971509;28;20620;-93
2022/10/04 14:48:44;;;;;;;3.53;2.23;;;26.30;55.10;;;;;;4967236;28;20644;-91
2022/10/04 14:51:39;;;;;;;6.73;2.30;;;26.40;55.10;;;;;;4973768;28;20688;-92
2022/10/04 14:54:10;;;;;;;2.03;1.60;;;26.10;55.80;;;;;;4960523;28;20683;-92
2022/10/04 14:57:04;;;;;;;2.63;2.30;;;25.50;55.50;;;;;;4972179;28;20716;-91
2022/10/04 14:59:54;;;;;;;1.60;1.50;;;25.20;58.00;;;;;;4961616;28;20700;-92
2022/10/04 15:03:01;;;;;;;1.77;1.67;;;25.40;57.00;;;;;;4970517;28;20818;-91